Montello, Nevada
Current Conditions -  °F | °C
As of 1:35 AM on Sunday 23 Nov 2014 (Local Time) from KENV Reporting Station
Clear Clear  
Wind Chill: 24°   Ceiling: Unl
Heat Index: 36°   Visibility: 10mi
Dew Point: 18°   Wind: 23mph
Humidity: 48%   Direction: 320°NW
Pressure: 30.1"   Gusts: 29mph
Location:  41.26°N, 114.2°W
Report Text: KENV 230935Z AUTO 32020G25KT 10SM CLR 02/M08 A3010 RMK AO1
Loading
Personal Weather Stations






























Interactive Weather Map New forecast layout! Learn more

10-Day Weather Forecast

Advertisements
Track Severe Weather on mobile